Marco Polo — C6JZ7 — position and weather

sailwx.info

Track history (hours):
 
Tides and Currents Weather Stations Pressure Air Temp Water Temp Dewpoint Dewpoint Depression Visibility Wind Speed Wind Dir Waves Ship Positions

Marco Polo

Operator: Orient Lines

Last reported at 2014-Jul-23 19:18 UTC. Time now 2014-Jul-24 02:27 UTC.
Position N 58°05' W 006°19'.

Type: Passenger vessel. MMSI: 308693000.

Date/timePositionNaut miles runAvg speedWind from/ knotsBaromVisibWave heightAir tempDewpointWater temp
2014-Jul-23 19:18N 58°05' W 006°19'6 8.8
2014-Jul-23 18:34N 58°12' W 006°22'0 0.1
2014-Jul-23 17:33N 58°12' W 006°22'0 0.0
2014-Jul-23 16:32N 58°12' W 006°22'0 0.0
2014-Jul-23 15:32N 58°12' W 006°22'0 0.0
2014-Jul-23 14:31N 58°12' W 006°22'0 0.0
2014-Jul-23 13:31N 58°12' W 006°22'0 0.0
2014-Jul-23 12:33N 58°12' W 006°22'0 0.0
2014-Jul-23 11:33N 58°12' W 006°22'0 0.0
2014-Jul-23 10:12N 58°12' W 006°22'0 0.0
2014-Jul-23 09:27N 58°12' W 006°22'0 0.0
2014-Jul-23 08:33N 58°12' W 006°22'0 0.0
2014-Jul-23 07:33N 58°12' W 006°22'0 0.0
2014-Jul-23 06:33N 58°12' W 006°22'1 0.5
2014-Jul-23 05:33N 58°11' W 006°22'1111.3
2014-Jul-23 04:34N 58°15' W 006°01'4414.5
2014-Jul-23 01:30N 58°42' W 004°55'1111.6
2014-Jul-23 00:33N 58°48' W 004°37'1110.8
2014-Jul-22 23:33N 58°53' W 004°19'1110.7
2014-Jul-22 22:33N 58°59' W 004°01'1010.3
2014-Jul-22 21:33N 59°04' W 003°44'10 9.9
2014-Jul-22 20:34N 59°09' W 003°27'10 9.7
2014-Jul-22 19:34N 59°13' W 003°10'10 9.9
2014-Jul-22 18:33N 59°10' W 002°51'9 9.4
2014-Jul-22 17:33N 59°00' W 002°49'5 4.8
2014-Jul-22 16:31N 59°00' W 002°58'0 0.0
2014-Jul-22 15:31N 59°00' W 002°58'0 0.0
2014-Jul-22 14:33N 59°00' W 002°58'0 0.0
2014-Jul-22 13:33N 59°00' W 002°58'0 0.0
2014-Jul-22 12:32N 59°00' W 002°58'0 0.0
2014-Jul-22 11:33N 59°00' W 002°58'0 0.0
2014-Jul-22 10:33N 59°00' W 002°58'0 0.0
2014-Jul-22 09:32N 59°00' W 002°58'0 0.0
2014-Jul-22 08:31N 59°00' W 002°58'0 0.0
2014-Jul-22 07:31N 59°00' W 002°58'0 0.0
2014-Jul-22 06:32N 59°00' W 002°58'0 0.1
2014-Jul-22 05:33N 58°60' W 002°58'7 6.6
2014-Jul-22 04:33N 59°00' W 002°45'79 2.8
2014-Jul-21 00:33N 57°46' W 001°55'1414.2
2014-Jul-20 23:33N 57°34' W 001°39'16414.7
2014-Jul-20 12:23N 54°58' W 000°11'1214.8
2014-Jul-20 11:33N 54°46' W 000°04'1414.2
2014-Jul-20 10:33N 54°33' E 000°04'1414.0
2014-Jul-20 09:33N 54°19' E 000°11'1413.9
2014-Jul-20 08:33N 54°06' E 000°18'1914.4
2014-Jul-20 07:16N 53°51' E 000°37'3115.6
2014-Jul-20 05:17N 53°25' E 001°05'1215.5
2014-Jul-20 04:32N 53°16' E 001°16'1414.6
2014-Jul-20 03:33N 53°06' E 001°33'1413.8
2014-Jul-20 02:33N 52°58' E 001°52'1312.5
2014-Jul-20 01:33N 52°50' E 002°09'3013.5
2014-Jul-19 23:19N 52°21' E 001°58'1215.7
2014-Jul-19 22:33N 52°09' E 001°53'1716.7
2014-Jul-19 21:33N 51°53' E 001°48'1312.7
2014-Jul-19 20:34N 51°45' E 001°31'2617.7
2014-Jul-19 19:06N 51°29' E 000°59'916.7
2014-Jul-19 18:34N 51°30' E 000°44'1211.6
2014-Jul-19 17:34N 51°27' E 000°26'3 2.7
2014-Jul-19 16:34N 51°27' E 000°22'0 0.0
2014-Jul-19 15:34N 51°27' E 000°22'0 0.0
2014-Jul-19 14:34N 51°27' E 000°22'0 0.0
2014-Jul-19 13:34N 51°27' E 000°22'0 0.0
2014-Jul-19 12:34N 51°27' E 000°22'0 0.0
2014-Jul-19 11:34N 51°27' E 000°22'0 0.0
2014-Jul-19 10:34N 51°27' E 000°22'0 0.0
2014-Jul-19 09:34N 51°27' E 000°22'3 3.0
2014-Jul-19 08:33N 51°28' E 000°27'10 9.8
2014-Jul-19 07:33N 51°30' E 000°42'1312.5
2014-Jul-19 06:33N 51°30' E 001°02'1313.2
2014-Jul-19 05:33N 51°38' E 001°20'1717.3
2014-Jul-19 04:33N 51°50' E 001°39'1616.0
2014-Jul-19 03:33N 52°03' E 001°54'1413.1
2014-Jul-19 02:30N 52°14' E 002°07'1212.9
2014-Jul-19 01:32N 52°26' E 002°13'3616.5
2014-Jul-18 23:21N 52°59' E 001°48'1518.6
2014-Jul-18 22:33N 53°08' E 001°28'6118.3
2014-Jul-18 19:12N 53°57' E 000°26'1217.9
2014-Jul-18 18:33N 54°06' E 000°13'1817.6
2014-Jul-18 17:33N 54°19' W 000°07'1716.6
2014-Jul-18 16:33N 54°31' W 000°27'3316.0
2014-Jul-18 14:30N 54°55' W 001°05'14 1.4
2014-Jul-18 05:05N 54°59' W 001°28'4 6.7
2014-Jul-18 04:33N 55°01' W 001°22'1312.9
2014-Jul-18 03:33N 55°10' W 001°06'1414.0
2014-Jul-18 02:33N 55°20' W 000°48'2914.4
2014-Jul-18 00:31N 55°41' W 000°12'33210.3
2014-Jul-16 16:19N 60°24' E 005°14'2 2.8
2014-Jul-16 15:28N 60°23' E 005°19'0 0.0
2014-Jul-16 14:33N 60°23' E 005°19'0 0.0
2014-Jul-16 13:33N 60°23' E 005°19'0 0.0
2014-Jul-16 12:26N 60°23' E 005°19'0 0.0
2014-Jul-16 11:20N 60°23' E 005°19'0 0.0
2014-Jul-16 10:32N 60°23' E 005°19'0 0.0
2014-Jul-16 09:31N 60°23' E 005°19'0 0.0
2014-Jul-16 08:31N 60°23' E 005°19'0 0.0
2014-Jul-16 07:33N 60°23' E 005°19'  
Track history (hours):
 
Tides and Currents Weather Stations Pressure Air Temp Water Temp Dewpoint Dewpoint Depression Visibility Wind Speed Wind Dir Waves Ship Positions

Marco Polo

Operator: Orient Lines

Last reported at 2014-Jul-23 19:18 UTC. Time now 2014-Jul-24 02:27 UTC.
Position N 58°05' W 006°19'.

Type: Passenger vessel. MMSI: 308693000.

Date/timePositionNaut miles runAvg speedWind from/ knotsBaromVisibWave heightAir tempDewpointWater temp
2014-Jul-23 19:18N 58°05' W 006°19'6 8.8
2014-Jul-23 18:34N 58°12' W 006°22'0 0.1
2014-Jul-23 17:33N 58°12' W 006°22'0 0.0
2014-Jul-23 16:32N 58°12' W 006°22'0 0.0
2014-Jul-23 15:32N 58°12' W 006°22'0 0.0
2014-Jul-23 14:31N 58°12' W 006°22'0 0.0
2014-Jul-23 13:31N 58°12' W 006°22'0 0.0
2014-Jul-23 12:33N 58°12' W 006°22'0 0.0
2014-Jul-23 11:33N 58°12' W 006°22'0 0.0
2014-Jul-23 10:12N 58°12' W 006°22'0 0.0
2014-Jul-23 09:27N 58°12' W 006°22'0 0.0
2014-Jul-23 08:33N 58°12' W 006°22'0 0.0
2014-Jul-23 07:33N 58°12' W 006°22'0 0.0
2014-Jul-23 06:33N 58°12' W 006°22'1 0.5
2014-Jul-23 05:33N 58°11' W 006°22'1111.3
2014-Jul-23 04:34N 58°15' W 006°01'4414.5
2014-Jul-23 01:30N 58°42' W 004°55'1111.6
2014-Jul-23 00:33N 58°48' W 004°37'1110.8
2014-Jul-22 23:33N 58°53' W 004°19'1110.7
2014-Jul-22 22:33N 58°59' W 004°01'1010.3
2014-Jul-22 21:33N 59°04' W 003°44'10 9.9
2014-Jul-22 20:34N 59°09' W 003°27'10 9.7
2014-Jul-22 19:34N 59°13' W 003°10'10 9.9
2014-Jul-22 18:33N 59°10' W 002°51'9 9.4
2014-Jul-22 17:33N 59°00' W 002°49'5 4.8
2014-Jul-22 16:31N 59°00' W 002°58'0 0.0
2014-Jul-22 15:31N 59°00' W 002°58'0 0.0
2014-Jul-22 14:33N 59°00' W 002°58'0 0.0
2014-Jul-22 13:33N 59°00' W 002°58'0 0.0
2014-Jul-22 12:32N 59°00' W 002°58'0 0.0
2014-Jul-22 11:33N 59°00' W 002°58'0 0.0
2014-Jul-22 10:33N 59°00' W 002°58'0 0.0
2014-Jul-22 09:32N 59°00' W 002°58'0 0.0
2014-Jul-22 08:31N 59°00' W 002°58'0 0.0
2014-Jul-22 07:31N 59°00' W 002°58'0 0.0
2014-Jul-22 06:32N 59°00' W 002°58'0 0.1
2014-Jul-22 05:33N 58°60' W 002°58'7 6.6
2014-Jul-22 04:33N 59°00' W 002°45'79 2.8
2014-Jul-21 00:33N 57°46' W 001°55'1414.2
2014-Jul-20 23:33N 57°34' W 001°39'16414.7
2014-Jul-20 12:23N 54°58' W 000°11'1214.8
2014-Jul-20 11:33N 54°46' W 000°04'1414.2
2014-Jul-20 10:33N 54°33' E 000°04'1414.0
2014-Jul-20 09:33N 54°19' E 000°11'1413.9
2014-Jul-20 08:33N 54°06' E 000°18'1914.4
2014-Jul-20 07:16N 53°51' E 000°37'3115.6
2014-Jul-20 05:17N 53°25' E 001°05'1215.5
2014-Jul-20 04:32N 53°16' E 001°16'1414.6
2014-Jul-20 03:33N 53°06' E 001°33'1413.8
2014-Jul-20 02:33N 52°58' E 001°52'1312.5
2014-Jul-20 01:33N 52°50' E 002°09'3013.5
2014-Jul-19 23:19N 52°21' E 001°58'1215.7
2014-Jul-19 22:33N 52°09' E 001°53'1716.7
2014-Jul-19 21:33N 51°53' E 001°48'1312.7
2014-Jul-19 20:34N 51°45' E 001°31'2617.7
2014-Jul-19 19:06N 51°29' E 000°59'916.7
2014-Jul-19 18:34N 51°30' E 000°44'1211.6
2014-Jul-19 17:34N 51°27' E 000°26'3 2.7
2014-Jul-19 16:34N 51°27' E 000°22'0 0.0
2014-Jul-19 15:34N 51°27' E 000°22'0 0.0
2014-Jul-19 14:34N 51°27' E 000°22'0 0.0
2014-Jul-19 13:34N 51°27' E 000°22'0 0.0
2014-Jul-19 12:34N 51°27' E 000°22'0 0.0
2014-Jul-19 11:34N 51°27' E 000°22'0 0.0
2014-Jul-19 10:34N 51°27' E 000°22'0 0.0
2014-Jul-19 09:34N 51°27' E 000°22'3 3.0
2014-Jul-19 08:33N 51°28' E 000°27'10 9.8
2014-Jul-19 07:33N 51°30' E 000°42'1312.5
2014-Jul-19 06:33N 51°30' E 001°02'1313.2
2014-Jul-19 05:33N 51°38' E 001°20'1717.3
2014-Jul-19 04:33N 51°50' E 001°39'1616.0
2014-Jul-19 03:33N 52°03' E 001°54'1413.1
2014-Jul-19 02:30N 52°14' E 002°07'1212.9
2014-Jul-19 01:32N 52°26' E 002°13'3616.5
2014-Jul-18 23:21N 52°59' E 001°48'1518.6
2014-Jul-18 22:33N 53°08' E 001°28'6118.3
2014-Jul-18 19:12N 53°57' E 000°26'1217.9
2014-Jul-18 18:33N 54°06' E 000°13'1817.6
2014-Jul-18 17:33N 54°19' W 000°07'1716.6
2014-Jul-18 16:33N 54°31' W 000°27'3316.0
2014-Jul-18 14:30N 54°55' W 001°05'14 1.4
2014-Jul-18 05:05N 54°59' W 001°28'4 6.7
2014-Jul-18 04:33N 55°01' W 001°22'1312.9
2014-Jul-18 03:33N 55°10' W 001°06'1414.0
2014-Jul-18 02:33N 55°20' W 000°48'2914.4
2014-Jul-18 00:31N 55°41' W 000°12'33210.3
2014-Jul-16 16:19N 60°24' E 005°14'2 2.8
2014-Jul-16 15:28N 60°23' E 005°19'0 0.0
2014-Jul-16 14:33N 60°23' E 005°19'0 0.0
2014-Jul-16 13:33N 60°23' E 005°19'0 0.0
2014-Jul-16 12:26N 60°23' E 005°19'0 0.0
2014-Jul-16 11:20N 60°23' E 005°19'0 0.0
2014-Jul-16 10:32N 60°23' E 005°19'0 0.0
2014-Jul-16 09:31N 60°23' E 005°19'0 0.0
2014-Jul-16 08:31N 60°23' E 005°19'0 0.0
2014-Jul-16 07:33N 60°23' E 005°19'  

Dump ship's entire track history